Kempner, Texas
Current Conditions -  °F | °C
As of 11:55 AM on Saturday 22 Nov 2014 (Local Time) from KLZZ Reporting Station
Thunderstorm Thunderstorm  
Wind Chill: 64°   Ceiling: 1100
Heat Index: 64°   Visibility: 7mi
Dew Point: 61°   Wind: 7mph
Humidity: 93%   Direction: 130°SE
Pressure: 29.92"   Gusts: NA
Location:  31.08°N, 98°W
Report Text: KLZZ 221755Z AUTO 13006KT 7SM -VCTSRA BKN011 OVC046 18/16 A2992 RMK AO2 LTG DSNT ALQS T01750163 10186 20175
Loading
Personal Weather Stations






























Interactive Weather Map New forecast layout! Learn more

10-Day Weather Forecast

Advertisements
Track Severe Weather on mobile